INFORMACIÓN METAR y TAF
METAR FOR SKPS
ADDS - METARS form results

(2123 UTC 03 December 2022)
Data provider http://aviationweather.gov/metar/data/
 
METAR text: SKPS 032100Z 04006KT 010V070 9999 SCT023 20/15 Q1017 RMK A3003
Conditions at: SKPS (PASTO/ANTONIO NA, CO) observed 2100 UTC 03 December 2022
Temperature: 20.0°C (68°F)
Dewpoint: 15.0°C (59°F) [RH = 73%]
Pressure (altimeter): 30.03 inches Hg (1017.0 mb)
Winds: from the NE (40 degrees) at 7 MPH (6 knots; 3.1 m/s)
Visibility: 6 or more miles (10+ km)
Ceiling: at least 12,000 feet AGL
Clouds: scattered clouds at 2300 feet AGL
Weather: no significant weather observed at this time

 MAPA DE AEROPUERTO

 INFORMACIÓN DE PISTA
Pista 02 Longitud 7585 ft Ancho 130 ft
Elevación 5840 ft Umbral desplazado 200 ft Rumbo de pista 16
Pista 20 Longitud 7585 ft Ancho 130 ft
Elevación 5840 ft Umbral desplazado 170 ft Rumbo de pista 196

 FRECUANCIAS DEL AEROPUERTO
Tipo RDO Nombre PASTO RDO Frecuencia 348.8 MHZ
Tipo TWR Nombre TWR Frecuencia 118 MHZ

 RADIO AYUDAS DEL AEROPUERTO
Tipo VOR-DME Nombre Pasto Frecuencia 113400 KHZ
Tipo NDB Nombre Pasto Frecuencia 264 KHZ



Powered by Virtual Airlines Manager [v2.6.2]